Time;durP1;ratioP1;P1;durP2;ratioP2;P2;SDS_P1;SDS_P2;PMS_P1;PMS_P2;Temp;Humidity;BMP_temperature;BMP_pressure;BME280_temperature;BME280_humidity;BME280_pressure;Samples;Min_cycle;Max_cycle;Signal;HPM_P1;HPM_P2
2022/05/28 00:01:13;;;;;;;7.30;2.13;;;11.60;99.90;;;;;;4990399;28;20030;-70
2022/05/28 00:03:39;;;;;;;7.97;2.15;;;11.60;99.90;;;;;;4991279;28;20112;-70
2022/05/28 00:06:19;;;;;;;9.55;2.00;;;11.60;99.90;;;;;;4988258;28;20057;-70
2022/05/28 00:08:45;;;;;;;12.73;2.97;;;;;;;;;;4986820;28;20387;-70
2022/05/28 00:11:20;;;;;;;12.00;2.75;;;11.60;99.90;;;;;;4988941;28;20026;-70
2022/05/28 00:13:47;;;;;;;9.77;2.50;;;;;;;;;;4989765;28;20037;-70
2022/05/28 00:16:14;;;;;;;9.25;2.55;;;11.40;99.90;;;;;;4989336;28;20023;-70
2022/05/28 00:18:40;;;;;;;8.20;2.65;;;11.40;99.90;;;;;;4992557;28;20042;-70
2022/05/28 00:21:06;;;;;;;8.65;2.22;;;;;;;;;;4989976;28;20029;-71
2022/05/28 00:23:32;;;;;;;7.57;2.60;;;;;;;;;;4997817;28;20034;-70
2022/05/28 00:25:58;;;;;;;7.90;2.80;;;;;;;;;;4990865;28;20041;-70
2022/05/28 00:28:23;;;;;;;8.40;2.65;;;11.20;99.90;;;;;;4991558;28;20506;-70
2022/05/28 00:30:50;;;;;;;7.90;1.48;;;;;;;;;;4995360;28;20514;-70
2022/05/28 00:33:16;;;;;;;7.50;2.65;;;11.10;99.90;;;;;;4998736;28;20043;-69
2022/05/28 00:35:42;;;;;;;7.90;1.90;;;;;;;;;;4991966;28;20028;-69
2022/05/28 00:38:08;;;;;;;8.50;2.55;;;;;;;;;;5010181;28;20101;-69
2022/05/28 00:40:34;;;;;;;6.30;2.40;;;10.90;99.90;;;;;;5009073;28;20030;-69
2022/05/28 00:43:03;;;;;;;12.95;2.83;;;11.30;99.90;;;;;;5009888;28;20018;-70
2022/05/28 00:45:30;;;;;;;7.88;2.50;;;11.00;99.90;;;;;;5008291;28;20026;-71
2022/05/28 00:47:58;;;;;;;11.32;3.00;;;10.80;99.90;;;;;;5004585;28;20033;-71
2022/05/28 00:50:25;;;;;;;9.23;3.42;;;10.90;99.90;;;;;;5010017;28;20026;-71
2022/05/28 00:52:51;;;;;;;14.38;2.60;;;10.80;99.90;;;;;;5006510;28;20022;-71
2022/05/28 00:55:17;;;;;;;9.50;2.65;;;;;;;;;;4998721;28;20072;-71
2022/05/28 00:57:44;;;;;;;6.80;2.60;;;10.70;99.90;;;;;;4987159;28;20387;-71
2022/05/28 01:00:13;;;;;;;16.10;2.87;;;10.80;99.90;;;;;;4990460;28;20030;-70
2022/05/28 01:03:02;;;;;;;8.68;3.10;;;10.70;99.90;;;;;;5001335;28;20425;-69
2022/05/28 01:05:56;;;;;;;8.30;2.40;;;10.50;99.90;;;;;;5010039;28;20041;-69
2022/05/28 01:08:39;;;;;;;7.33;2.03;;;10.70;99.90;;;;;;4992317;28;20034;-69
2022/05/28 01:11:49;;;;;;;9.87;2.70;;;9.30;99.90;;;;;;4990407;28;20022;-69
2022/05/28 01:14:28;;;;;;;13.55;3.22;;;10.60;99.90;;;;;;4920620;29;20579;-68
2022/05/28 01:17:17;;;;;;;11.47;2.20;;;10.60;99.90;;;;;;4944016;29;20031;-69
2022/05/28 01:19:55;;;;;;;5.63;1.87;;;10.50;99.90;;;;;;4930209;29;20032;-71
2022/05/28 01:22:43;;;;;;;12.20;2.92;;;10.40;99.90;;;;;;4939848;29;20559;-71
2022/05/28 01:25:33;;;;;;;11.50;3.17;;;10.50;99.90;;;;;;4931433;29;20058;-72
2022/05/28 01:28:03;;;;;;;8.87;2.70;;;10.50;99.90;;;;;;4931766;29;20532;-71
2022/05/28 01:30:30;;;;;;;11.67;2.83;;;10.40;99.90;;;;;;4911443;29;20036;-71
2022/05/28 01:32:58;;;;;;;10.37;2.73;;;10.40;99.90;;;;;;4915742;29;20063;-71
2022/05/28 01:35:26;;;;;;;10.50;2.70;;;10.50;99.90;;;;;;4933694;29;20066;-71
2022/05/28 01:37:52;;;;;;;7.68;2.28;;;10.40;99.90;;;;;;4947117;29;20112;-71
2022/05/28 01:40:20;;;;;;;12.83;2.53;;;10.50;99.90;;;;;;4952870;29;20027;-69
2022/05/28 01:42:51;;;;;;;7.50;2.40;;;10.50;99.90;;;;;;4953646;29;20139;-68
2022/05/28 01:45:20;;;;;;;8.00;2.03;;;10.50;99.90;;;;;;4992446;28;20113;-69
2022/05/28 01:47:47;;;;;;;10.77;2.97;;;10.50;99.90;;;;;;5000227;28;20380;-72
2022/05/28 01:50:15;;;;;;;10.37;2.90;;;10.50;99.90;;;;;;4993348;28;20416;-69
2022/05/28 01:52:41;;;;;;;14.40;3.83;;;10.50;99.90;;;;;;4999767;28;20084;-69
2022/05/28 01:55:10;;;;;;;12.20;3.10;;;10.60;99.90;;;;;;4994197;28;20045;-69
2022/05/28 01:57:36;;;;;;;10.77;2.80;;;;;;;;;;4999850;28;20066;-69
2022/05/28 02:00:02;;;;;;;9.40;2.25;;;10.50;99.90;;;;;;4994621;28;20499;-69
2022/05/28 02:02:29;;;;;;;8.30;2.43;;;10.40;99.90;;;;;;4996407;28;20038;-69
2022/05/28 02:04:55;;;;;;;10.80;3.53;;;;;;;;;;4993645;28;20372;-69
2022/05/28 02:07:21;;;;;;;11.67;2.80;;;10.40;99.90;;;;;;4993650;28;20109;-69
2022/05/28 02:10:00;;;;;;;6.78;2.75;;;10.40;99.90;;;;;;4993830;28;20026;-69
2022/05/28 02:12:26;;;;;;;12.57;2.40;;;;;;;;;;5003305;28;20070;-69
2022/05/28 02:15:25;;;;;;;5.70;2.30;;;10.40;99.90;;;;;;5012917;28;20128;-69
2022/05/28 02:18:17;;;;;;;10.53;3.63;;;10.40;99.90;;;;;;4999181;28;20375;-69
2022/05/28 02:21:05;;;;;;;7.17;2.37;;;10.40;99.90;;;;;;4992905;28;20049;-69
2022/05/28 02:23:50;;;;;;;11.82;2.63;;;10.50;99.90;;;;;;5002362;28;20057;-69
2022/05/28 02:26:21;;;;;;;7.40;1.73;;;10.40;99.90;;;;;;5011374;28;20106;-69
2022/05/28 02:28:47;;;;;;;10.48;2.72;;;;;;;;;;5010033;28;20030;-69
2022/05/28 02:31:19;;;;;;;8.33;2.37;;;10.60;99.90;;;;;;4998431;28;20055;-70
2022/05/28 02:33:45;;;;;;;7.05;2.85;;;10.40;99.90;;;;;;4994272;28;20065;-69
2022/05/28 02:36:13;;;;;;;9.00;3.22;;;10.50;99.90;;;;;;4991538;28;20030;-69
2022/05/28 02:38:38;;;;;;;10.02;2.97;;;10.40;99.90;;;;;;5012681;28;20033;-70
2022/05/28 02:41:04;;;;;;;7.87;2.17;;;10.50;99.90;;;;;;5027571;28;20041;-69
2022/05/28 02:43:31;;;;;;;9.85;3.10;;;;;;;;;;4993159;28;20133;-70
2022/05/28 02:45:57;;;;;;;9.53;1.97;;;10.50;99.90;;;;;;4991499;28;20027;-69
2022/05/28 02:48:23;;;;;;;10.27;2.97;;;10.50;99.90;;;;;;5010305;28;20117;-69
2022/05/28 02:50:49;;;;;;;7.43;2.83;;;;;;;;;;5012467;28;20026;-69
2022/05/28 02:53:15;;;;;;;10.95;3.25;;;;;;;;;;4999198;28;20037;-69
2022/05/28 02:55:41;;;;;;;9.85;2.33;;;10.60;99.90;;;;;;4996788;28;20101;-69
2022/05/28 02:58:07;;;;;;;9.20;2.53;;;;;;;;;;4996343;28;20475;-69
2022/05/28 03:00:32;;;;;;;10.63;2.23;;;10.50;99.90;;;;;;5001550;28;20121;-69
2022/05/28 03:02:58;;;;;;;9.23;2.20;;;;;;;;;;5011986;28;20060;-70
2022/05/28 03:05:25;;;;;;;7.35;2.42;;;10.50;99.90;;;;;;5010726;28;20121;-70
2022/05/28 03:07:51;;;;;;;6.72;2.10;;;10.60;99.90;;;;;;4992582;28;20032;-70
2022/05/28 03:10:17;;;;;;;12.13;2.47;;;10.50;99.90;;;;;;5004930;28;20026;-70
2022/05/28 03:12:42;;;;;;;11.30;2.60;;;10.70;99.90;;;;;;5012094;28;20030;-70
2022/05/28 03:15:09;;;;;;;8.35;1.90;;;10.50;99.90;;;;;;4998952;28;20038;-70
2022/05/28 03:17:34;;;;;;;9.23;2.63;;;10.50;99.90;;;;;;4994526;28;20610;-70
2022/05/28 03:20:01;;;;;;;8.13;2.30;;;10.50;99.90;;;;;;4991938;28;20110;-70
2022/05/28 03:22:27;;;;;;;10.60;2.47;;;;;;;;;;5002408;28;20049;-69
2022/05/28 03:24:53;;;;;;;9.63;2.93;;;10.50;99.90;;;;;;5002702;28;20070;-69
2022/05/28 03:27:19;;;;;;;10.00;2.20;;;10.50;99.90;;;;;;4995680;28;20431;-70
2022/05/28 03:29:44;;;;;;;10.13;1.63;;;;;;;;;;4991643;28;20388;-69
2022/05/28 03:32:10;;;;;;;6.97;1.98;;;10.40;99.90;;;;;;4993953;28;20084;-70
2022/05/28 03:34:38;;;;;;;11.80;1.98;;;10.40;99.90;;;;;;4993260;28;20038;-70
2022/05/28 03:37:05;;;;;;;10.90;2.43;;;10.40;99.90;;;;;;4992548;28;20502;-70
2022/05/28 03:39:30;;;;;;;8.67;2.03;;;10.20;99.90;;;;;;4992131;28;20117;-69
2022/05/28 03:41:56;;;;;;;6.77;2.80;;;;;;;;;;4995593;28;20444;-69
2022/05/28 03:44:22;;;;;;;10.93;2.20;;;10.20;99.90;;;;;;4991092;28;20039;-69
2022/05/28 03:46:48;;;;;;;8.87;2.00;;;;;;;;;;4996067;28;20098;-69
2022/05/28 03:49:28;;;;;;;8.68;2.63;;;10.30;99.90;;;;;;5009217;28;20034;-70
2022/05/28 03:51:55;;;;;;;8.00;1.67;;;10.40;99.90;;;;;;5002795;28;20089;-69
2022/05/28 03:54:20;;;;;;;7.57;1.57;;;10.20;99.90;;;;;;4989384;28;20069;-69
2022/05/28 03:56:48;;;;;;;8.33;1.80;;;10.20;99.90;;;;;;5007016;28;20056;-69
2022/05/28 03:59:13;;;;;;;8.97;3.00;;;10.20;99.90;;;;;;4991511;28;20038;-69
2022/05/28 04:01:39;;;;;;;15.07;2.23;;;10.20;99.90;;;;;;4992564;28;20030;-69
2022/05/28 04:04:05;;;;;;;11.37;1.80;;;10.20;99.90;;;;;;5009288;28;20038;-69
2022/05/28 04:06:33;;;;;;;9.23;2.03;;;10.10;99.90;;;;;;5002021;28;20506;-70
2022/05/28 04:09:00;;;;;;;6.90;1.83;;;;;;;;;;4992952;28;20038;-69
2022/05/28 04:11:25;;;;;;;8.50;2.10;;;10.40;99.90;;;;;;5011917;28;20478;-70
2022/05/28 04:13:51;;;;;;;12.70;2.30;;;10.30;99.90;;;;;;5010059;28;20125;-71
2022/05/28 04:16:17;;;;;;;10.05;2.00;;;10.30;99.90;;;;;;4991523;28;20042;-69
2022/05/28 04:18:43;;;;;;;8.53;1.70;;;10.30;99.90;;;;;;5000363;28;20030;-69
2022/05/28 04:21:09;;;;;;;6.90;1.80;;;10.40;99.90;;;;;;4991318;28;20049;-70
2022/05/28 04:23:35;;;;;;;6.87;1.80;;;;;;;;;;4977749;28;20437;-69
2022/05/28 04:26:00;;;;;;;7.73;1.70;;;10.30;99.90;;;;;;5008520;28;20025;-69
2022/05/28 04:28:26;;;;;;;7.37;1.53;;;10.40;99.90;;;;;;4991889;28;20034;-69
2022/05/28 04:30:51;;;;;;;6.67;1.77;;;10.50;99.90;;;;;;4990916;28;20113;-69
2022/05/28 04:33:17;;;;;;;9.77;2.00;;;10.50;99.90;;;;;;4991795;28;20040;-69
2022/05/28 04:35:42;;;;;;;5.78;1.35;;;10.50;99.90;;;;;;4992971;28;20022;-69
2022/05/28 04:38:09;;;;;;;9.60;2.00;;;10.60;99.90;;;;;;5010181;28;20022;-69
2022/05/28 04:40:34;;;;;;;8.97;1.53;;;10.50;99.90;;;;;;5009352;28;20022;-70
2022/05/28 04:43:00;;;;;;;5.88;1.20;;;10.60;99.90;;;;;;4989787;28;20041;-71
2022/05/28 04:45:25;;;;;;;7.35;1.80;;;10.50;99.90;;;;;;4990936;28;20050;-71
2022/05/28 04:47:51;;;;;;;7.30;1.77;;;;;;;;;;5004123;28;20079;-71
2022/05/28 04:50:17;;;;;;;5.93;1.73;;;10.70;99.90;;;;;;5009975;28;20105;-71
2022/05/28 04:52:42;;;;;;;10.93;1.87;;;10.70;99.90;;;;;;5010159;28;20052;-71
2022/05/28 04:55:09;;;;;;;5.97;1.27;;;10.60;99.90;;;;;;5016111;28;20026;-71
2022/05/28 04:57:36;;;;;;;5.73;1.20;;;10.70;99.90;;;;;;4998244;28;20038;-71
2022/05/28 05:00:02;;;;;;;7.27;1.37;;;;;;;;;;4990167;28;20018;-71
2022/05/28 05:02:27;;;;;;;5.47;1.13;;;10.90;99.90;;;;;;4992934;28;20038;-71
2022/05/28 05:04:55;;;;;;;11.37;3.03;;;11.00;99.90;;;;;;4997010;28;20038;-70
2022/05/28 05:07:21;;;;;;;6.20;2.03;;;;;;;;;;4997283;28;20106;-70
2022/05/28 05:09:47;;;;;;;8.07;0.90;;;11.10;99.90;;;;;;4994423;28;20456;-71
2022/05/28 05:12:12;;;;;;;4.57;0.90;;;11.10;99.90;;;;;;4996709;28;20479;-70
2022/05/28 05:14:37;;;;;;;9.27;1.52;;;11.20;99.90;;;;;;4997658;28;20041;-70
2022/05/28 05:17:03;;;;;;;5.53;1.40;;;11.20;99.90;;;;;;4995599;28;20045;-70
2022/05/28 05:19:29;;;;;;;10.80;1.35;;;;;;;;;;4994582;28;20030;-71
2022/05/28 05:21:55;;;;;;;6.43;1.23;;;11.50;99.90;;;;;;4994699;28;20023;-71
2022/05/28 05:24:25;;;;;;;10.30;2.33;;;13.20;99.90;;;;;;4994802;28;20112;-71
2022/05/28 05:26:50;;;;;;;17.20;4.88;;;11.70;99.90;;;;;;5011265;28;20034;-71
2022/05/28 05:29:16;;;;;;;6.70;1.27;;;11.70;99.90;;;;;;5013286;28;20557;-71
2022/05/28 05:31:42;;;;;;;6.90;1.05;;;11.80;99.90;;;;;;5012228;28;20618;-71
2022/05/28 05:34:08;;;;;;;0.80;0.50;;;12.20;99.90;;;;;;5012953;28;20061;-71
2022/05/28 05:36:34;;;;;;;6.25;1.05;;;;;;;;;;5010549;28;20045;-71
2022/05/28 05:39:00;;;;;;;4.20;0.88;;;12.00;99.90;;;;;;4993710;28;20034;-71
2022/05/28 05:41:26;;;;;;;5.95;0.90;;;12.20;99.90;;;;;;5003365;28;20399;-71
2022/05/28 05:43:51;;;;;;;8.55;0.70;;;12.20;99.90;;;;;;5013442;28;20074;-71
2022/05/28 05:46:17;;;;;;;7.43;0.88;;;12.00;99.90;;;;;;5012332;28;20049;-71
2022/05/28 05:48:43;;;;;;;5.38;1.15;;;12.10;99.90;;;;;;4994319;28;20026;-71
2022/05/28 05:51:14;;;;;;;2.30;0.77;;;12.20;99.90;;;;;;4993440;28;20022;-71
2022/05/28 05:53:40;;;;;;;6.05;0.93;;;12.20;99.90;;;;;;4995615;28;20026;-71
2022/05/28 05:56:06;;;;;;;4.97;1.08;;;12.20;99.90;;;;;;5002513;28;20030;-71
2022/05/28 05:58:34;;;;;;;3.35;0.73;;;12.10;99.90;;;;;;4994309;28;20034;-71
2022/05/28 06:01:00;;;;;;;4.80;1.15;;;;;;;;;;4993490;28;20034;-70
2022/05/28 06:03:26;;;;;;;5.30;0.82;;;12.30;99.90;;;;;;4992649;28;20073;-71
2022/05/28 06:05:59;;;;;;;5.80;0.75;;;12.40;99.90;;;;;;4993642;28;20052;-71
2022/05/28 06:08:26;;;;;;;3.58;0.63;;;11.40;99.90;;;;;;5011488;28;20041;-71
2022/05/28 06:10:51;;;;;;;6.78;0.73;;;12.60;99.90;;;;;;5012830;28;20053;-71
2022/05/28 06:13:17;;;;;;;4.97;1.13;;;12.40;99.90;;;;;;4995364;28;20034;-71
2022/05/28 06:15:43;;;;;;;7.28;1.13;;;12.60;99.90;;;;;;4993706;28;20546;-71
2022/05/28 06:18:09;;;;;;;6.30;1.00;;;;;;;;;;5006879;28;20034;-71
2022/05/28 06:20:34;;;;;;;8.40;0.90;;;12.60;99.90;;;;;;5013093;28;20034;-69
2022/05/28 06:23:01;;;;;;;9.90;1.00;;;12.70;99.90;;;;;;5008914;28;20026;-71
2022/05/28 06:25:27;;;;;;;4.18;0.70;;;12.80;99.90;;;;;;4999594;28;20113;-71
2022/05/28 06:27:52;;;;;;;4.22;1.10;;;12.80;99.90;;;;;;5012646;28;20108;-71
2022/05/28 06:30:18;;;;;;;5.70;1.10;;;;;;;;;;5012035;28;20037;-71
2022/05/28 06:32:44;;;;;;;6.75;1.10;;;12.70;99.90;;;;;;4993859;28;20046;-71
2022/05/28 06:35:10;;;;;;;4.97;0.63;;;12.90;99.90;;;;;;5012588;28;20060;-71
2022/05/28 06:37:36;;;;;;;7.07;0.80;;;;;;;;;;5008759;28;20096;-71
2022/05/28 06:40:02;;;;;;;5.63;1.00;;;12.90;99.90;;;;;;5012699;28;20030;-71
2022/05/28 06:42:28;;;;;;;6.00;0.93;;;;;;;;;;5012235;28;20041;-71
2022/05/28 06:44:55;;;;;;;7.78;0.90;;;;;;;;;;4993084;28;20042;-71
2022/05/28 06:47:21;;;;;;;5.18;0.85;;;;;;;;;;5002155;28;20018;-71
2022/05/28 06:51:01;;;;;;;8.52;0.90;;;;;;;;;;5013549;28;20026;-71
2022/05/28 06:52:33;;;;;;;11.52;0.93;;;13.20;99.90;;;;;;5000840;28;20038;-71
2022/05/28 06:54:59;;;;;;;5.95;0.77;;;;;;;;;;5000443;28;20391;-72
2022/05/28 06:57:24;;;;;;;4.70;0.57;;;13.40;99.90;;;;;;4993040;28;20391;-71
2022/05/28 06:59:50;;;;;;;5.55;1.05;;;13.40;99.90;;;;;;5009981;28;20041;-71
2022/05/28 07:02:15;;;;;;;2.83;0.70;;;13.70;99.90;;;;;;5002883;28;20045;-71
2022/05/28 07:04:41;;;;;;;7.07;1.08;;;13.70;99.90;;;;;;4992715;28;20042;-71
2022/05/28 07:07:06;;;;;;;5.22;0.73;;;13.60;99.90;;;;;;4994501;28;20102;-71
2022/05/28 07:09:32;;;;;;;6.57;1.10;;;13.60;99.90;;;;;;5027255;28;20034;-71
2022/05/28 07:11:57;;;;;;;3.05;0.57;;;13.70;99.90;;;;;;5011956;28;20109;-71
2022/05/28 07:14:23;;;;;;;5.70;1.00;;;13.80;99.90;;;;;;4997910;28;20026;-71
2022/05/28 07:16:48;;;;;;;7.65;0.77;;;13.60;99.90;;;;;;4992238;28;20436;-71
2022/05/28 07:19:14;;;;;;;6.35;1.00;;;;;;;;;;4995882;28;20030;-71
2022/05/28 07:21:40;;;;;;;3.85;1.00;;;14.10;99.90;;;;;;5011236;28;20029;-71
2022/05/28 07:24:06;;;;;;;5.95;1.55;;;14.10;99.90;;;;;;4998821;28;20034;-71
2022/05/28 07:26:31;;;;;;;3.25;1.02;;;;;;;;;;4992166;28;20481;-71
2022/05/28 07:28:57;;;;;;;5.72;1.00;;;;;;;;;;4989171;28;20103;-71
2022/05/28 07:31:23;;;;;;;2.80;0.93;;;;;;;;;;4985296;28;20030;-71
2022/05/28 07:33:49;;;;;;;5.22;1.33;;;14.30;99.90;;;;;;4991832;28;20153;-71
2022/05/28 07:36:19;;;;;;;7.65;1.10;;;14.30;99.90;;;;;;4989522;28;20035;-69
2022/05/28 07:38:45;;;;;;;6.75;1.13;;;14.30;99.90;;;;;;5004481;28;20472;-70
2022/05/28 07:41:14;;;;;;;6.35;0.82;;;14.40;99.90;;;;;;4995944;28;20028;-70
2022/05/28 07:43:41;;;;;;;11.20;1.85;;;14.10;99.90;;;;;;5009716;28;20112;-71
2022/05/28 07:46:18;;;;;;;8.57;0.82;;;14.30;99.90;;;;;;4998751;28;20046;-71
2022/05/28 07:48:43;;;;;;;5.18;1.00;;;14.40;99.90;;;;;;5000028;28;20041;-71
2022/05/28 07:51:09;;;;;;;5.88;1.73;;;14.30;99.90;;;;;;5010270;28;20379;-71
2022/05/28 07:53:36;;;;;;;8.18;1.00;;;14.50;99.90;;;;;;5002078;28;20390;-71
2022/05/28 07:56:03;;;;;;;3.88;0.75;;;14.60;99.90;;;;;;4991127;28;20030;-71
2022/05/28 07:58:29;;;;;;;7.30;1.67;;;14.40;99.90;;;;;;4992331;28;20018;-71
2022/05/28 08:00:55;;;;;;;7.05;1.08;;;;;;;;;;4996557;28;20088;-72
2022/05/28 08:03:21;;;;;;;6.28;1.08;;;14.90;99.90;;;;;;4993237;28;20520;-72
2022/05/28 08:05:49;;;;;;;3.10;0.63;;;14.90;99.90;;;;;;4991107;28;20054;-72
2022/05/28 08:08:16;;;;;;;5.68;1.05;;;15.10;99.30;;;;;;4990624;28;20457;-72
2022/05/28 08:10:42;;;;;;;7.30;1.23;;;15.10;99.60;;;;;;4991566;28;20026;-71
2022/05/28 08:13:11;;;;;;;4.53;0.75;;;15.50;99.70;;;;;;4990929;28;20141;-72
2022/05/28 08:15:39;;;;;;;3.47;0.82;;;15.20;99.80;;;;;;4991583;28;20038;-72
2022/05/28 08:18:05;;;;;;;8.07;1.08;;;15.60;99.50;;;;;;4990973;28;20030;-72
2022/05/28 08:23:18;;;;;;;6.40;1.17;;;15.60;98.80;;;;;;4990899;28;20034;-70
2022/05/28 08:25:45;;;;;;;5.47;1.25;;;15.40;98.50;;;;;;4991240;28;20065;-71
2022/05/28 08:28:12;;;;;;;4.78;1.00;;;15.10;91.70;;;;;;4991129;28;20413;-70
2022/05/28 08:30:38;;;;;;;3.60;0.65;;;14.90;98.60;;;;;;4991252;28;20483;-71
2022/05/28 08:33:05;;;;;;;7.13;1.17;;;14.70;98.50;;;;;;4990604;28;20085;-72
2022/05/28 08:35:30;;;;;;;5.75;0.90;;;15.00;98.80;;;;;;4991384;28;20031;-71
2022/05/28 08:37:56;;;;;;;5.22;0.98;;;15.10;98.70;;;;;;4989777;28;20037;-71
2022/05/28 08:40:23;;;;;;;4.70;0.93;;;;;;;;;;4991044;28;20034;-71
2022/05/28 08:42:49;;;;;;;10.15;1.30;;;15.00;98.40;;;;;;4998742;28;20038;-72
2022/05/28 08:45:17;;;;;;;6.68;1.50;;;15.40;98.50;;;;;;4993478;28;20191;-71
2022/05/28 08:47:46;;;;;;;5.75;1.15;;;15.10;97.90;;;;;;4987225;28;20092;-71
2022/05/28 08:50:12;;;;;;;4.88;1.38;;;15.30;98.10;;;;;;4970985;28;20034;-71
2022/05/28 08:52:43;;;;;;;6.07;1.25;;;15.20;97.50;;;;;;4971452;28;20118;-71
2022/05/28 08:55:16;;;;;;;4.60;0.75;;;15.20;96.80;;;;;;4971129;28;20041;-72
2022/05/28 08:58:06;;;;;;;6.68;1.05;;;15.60;96.50;;;;;;4973239;28;20399;-70
2022/05/28 09:00:55;;;;;;;4.93;0.98;;;15.80;96.50;;;;;;4990872;28;20443;-70
2022/05/28 09:03:42;;;;;;;4.53;1.30;;;15.60;95.80;;;;;;4991494;28;20022;-70
2022/05/28 09:06:14;;;;;;;5.63;1.25;;;15.80;88.50;;;;;;4996930;28;20503;-73
2022/05/28 09:08:43;;;;;;;3.55;0.63;;;15.80;96.10;;;;;;4990604;28;20018;-72
2022/05/28 09:11:24;;;;;;;5.95;1.33;;;15.80;88.70;;;;;;4970606;28;20037;-72
2022/05/28 09:13:53;;;;;;;6.57;1.30;;;15.50;96.30;;;;;;4971318;28;20040;-70
2022/05/28 09:16:26;;;;;;;5.43;1.40;;;15.50;89.20;;;;;;4970737;28;20405;-69
2022/05/28 09:18:54;;;;;;;6.22;0.90;;;14.80;96.70;;;;;;4970759;28;20368;-72
2022/05/28 09:21:21;;;;;;;8.90;1.52;;;14.90;97.10;;;;;;4974856;28;20065;-69
2022/05/28 09:23:53;;;;;;;4.82;1.20;;;14.90;97.20;;;;;;5016608;28;20113;-70
2022/05/28 09:26:44;;;;;;;5.07;0.60;;;15.40;96.90;;;;;;4990237;28;20501;-70
2022/05/28 09:29:35;;;;;;;4.13;0.80;;;15.80;96.80;;;;;;4999398;28;20049;-73
2022/05/28 09:32:33;;;;;;;7.45;1.20;;;16.00;96.30;;;;;;5009069;28;20402;-72
2022/05/28 09:35:18;;;;;;;7.15;1.33;;;15.70;96.30;;;;;;5009841;28;20034;-72
2022/05/28 09:38:03;;;;;;;5.43;1.10;;;15.10;95.80;;;;;;5006072;28;20026;-72
2022/05/28 09:40:38;;;;;;;6.10;1.30;;;15.30;96.50;;;;;;5009239;28;20167;-71
2022/05/28 09:43:42;;;;;;;8.15;1.00;;;15.30;97.00;;;;;;5009428;28;20483;-72
2022/05/28 09:46:31;;;;;;;5.32;1.10;;;15.50;96.90;;;;;;5007286;28;20062;-70
2022/05/28 09:49:18;;;;;;;8.40;1.25;;;15.50;96.30;;;;;;4979508;28;20057;-70
2022/05/28 09:52:05;;;;;;;5.68;1.05;;;16.00;96.90;;;;;;4984307;28;20118;-69
2022/05/28 09:54:33;;;;;;;19.20;3.53;;;16.00;88.60;;;;;;4989989;28;20031;-69
2022/05/28 09:57:09;;;;;;;7.35;1.65;;;15.90;86.50;;;;;;4993377;28;20076;-69
2022/05/28 09:59:43;;;;;;;7.78;1.10;;;15.70;95.80;;;;;;4992731;28;20152;-70
2022/05/28 10:02:34;;;;;;;7.65;1.60;;;15.50;95.30;;;;;;4992499;28;20070;-70
2022/05/28 10:05:20;;;;;;;6.50;1.30;;;15.30;95.60;;;;;;4980217;28;20141;-70
2022/05/28 10:07:46;;;;;;;11.27;1.58;;;16.00;96.00;;;;;;4991750;28;20057;-70
2022/05/28 10:10:27;;;;;;;5.35;1.23;;;15.90;95.20;;;;;;4989030;28;20472;-70
2022/05/28 10:13:04;;;;;;;3.47;1.42;;;16.10;95.30;;;;;;4982548;28;20034;-73
2022/05/28 10:15:33;;;;;;;11.35;1.58;;;16.00;94.90;;;;;;4988959;28;20027;-70
2022/05/28 10:18:02;;;;;;;4.20;1.02;;;16.30;86.30;;;;;;4987004;28;20446;-70
2022/05/28 10:20:29;;;;;;;5.57;1.40;;;16.20;86.70;;;;;;4993203;28;20033;-70
2022/05/28 10:22:57;;;;;;;5.15;0.90;;;16.00;94.90;;;;;;4991866;28;20045;-70
2022/05/28 10:25:47;;;;;;;6.07;0.65;;;15.90;86.00;;;;;;4993801;28;20055;-70
2022/05/28 10:28:13;;;;;;;4.53;0.70;;;15.30;95.00;;;;;;4991130;28;20037;-70
2022/05/28 10:30:42;;;;;;;5.18;1.27;;;15.60;86.60;;;;;;4992073;28;20045;-70
2022/05/28 10:33:21;;;;;;;4.22;0.80;;;15.50;86.90;;;;;;4990677;28;20101;-70
2022/05/28 10:35:47;;;;;;;4.00;0.90;;;15.80;86.90;;;;;;4991716;28;20038;-70
2022/05/28 10:38:25;;;;;;;4.43;0.93;;;16.10;85.50;;;;;;4991768;28;20104;-70
2022/05/28 10:40:56;;;;;;;6.20;1.10;;;16.50;85.00;;;;;;4986748;28;20391;-70
2022/05/28 10:43:30;;;;;;;6.43;1.05;;;16.60;81.70;;;;;;4991464;28;20019;-70
2022/05/28 10:46:14;;;;;;;4.88;1.17;;;16.50;83.80;;;;;;4986530;28;20419;-70
2022/05/28 10:48:49;;;;;;;5.38;0.90;;;16.10;81.40;;;;;;4988535;28;20026;-72
2022/05/28 10:51:46;;;;;;;3.20;0.88;;;16.00;93.60;;;;;;4989264;28;20463;-70
2022/05/28 10:54:56;;;;;;;7.25;1.77;;;16.20;94.10;;;;;;4988626;28;20486;-70
2022/05/28 10:57:31;;;;;;;7.93;1.33;;;16.40;93.50;;;;;;4983132;28;20035;-70
2022/05/28 11:00:06;;;;;;;9.40;1.00;;;16.50;93.30;;;;;;4985331;28;20037;-70
2022/05/28 11:03:02;;;;;;;6.47;0.95;;;16.60;81.50;;;;;;4983937;28;20063;-70
2022/05/28 11:05:42;;;;;;;7.53;1.02;;;16.80;81.60;;;;;;4987142;28;20476;-70
2022/05/28 11:08:32;;;;;;;5.28;1.08;;;17.10;79.70;;;;;;4987270;28;20023;-70
2022/05/28 11:11:29;;;;;;;5.18;1.02;;;17.20;80.20;;;;;;4991226;28;20035;-70
2022/05/28 11:14:27;;;;;;;101.13;12.50;;;17.20;80.30;;;;;;4985928;28;20031;-70
2022/05/28 11:17:17;;;;;;;6.07;1.20;;;17.10;80.10;;;;;;4974754;28;20088;-70
2022/05/28 11:20:06;;;;;;;8.48;2.42;;;16.90;80.70;;;;;;4991541;28;20015;-69
2022/05/28 11:22:58;;;;;;;11.48;1.63;;;16.60;79.20;;;;;;4980594;28;20113;-70
2022/05/28 11:25:48;;;;;;;7.90;1.52;;;16.10;93.20;;;;;;4985481;28;20050;-70
2022/05/28 11:28:35;;;;;;;5.13;1.15;;;15.90;93.50;;;;;;4989057;28;20373;-70
2022/05/28 11:31:11;;;;;;;6.60;0.73;;;15.90;81.70;;;;;;4990549;28;20427;-70
2022/05/28 11:33:40;;;;;;;4.55;0.93;;;16.00;83.20;;;;;;4991844;28;20042;-70
2022/05/28 11:36:13;;;;;;;2.03;0.63;;;16.40;92.10;;;;;;4990349;28;20113;-70
2022/05/28 11:38:49;;;;;;;3.92;0.80;;;16.20;79.90;;;;;;4988411;28;20061;-70
2022/05/28 11:41:31;;;;;;;6.22;1.35;;;16.60;78.80;;;;;;4979466;28;20029;-70
2022/05/28 11:44:15;;;;;;;2.60;0.88;;;17.00;76.90;;;;;;4977106;28;20047;-70
2022/05/28 11:47:18;;;;;;;3.45;0.47;;;17.10;76.20;;;;;;4991619;28;20117;-70
2022/05/28 11:52:47;;;;;;;4.57;0.73;;;16.90;76.00;;;;;;4991919;28;20037;-70
2022/05/28 11:55:23;;;;;;;3.08;0.50;;;16.50;74.80;;;;;;4973949;28;20043;-70
2022/05/28 11:57:57;;;;;;;4.90;1.35;;;16.50;74.70;;;;;;5006214;28;20027;-70
2022/05/28 12:00:25;;;;;;;2.95;0.70;;;16.80;71.50;;;;;;4991825;28;20034;-70
2022/05/28 12:02:57;;;;;;;3.72;0.82;;;17.00;74.00;;;;;;4991556;28;20080;-72
2022/05/28 12:05:38;;;;;;;2.83;0.60;;;17.10;73.50;;;;;;4989159;28;20041;-73
2022/05/28 12:08:05;;;;;;;5.30;0.95;;;17.10;73.70;;;;;;4989879;28;20357;-70
2022/05/28 12:10:47;;;;;;;5.50;0.90;;;17.00;73.30;;;;;;4989387;28;20026;-70
2022/05/28 12:13:32;;;;;;;3.45;0.90;;;16.90;74.80;;;;;;4988916;28;20022;-70
2022/05/28 12:16:21;;;;;;;4.93;0.85;;;17.40;88.30;;;;;;4988005;28;20482;-70
2022/05/28 12:19:01;;;;;;;5.38;0.73;;;17.20;88.20;;;;;;4983218;28;20046;-70
2022/05/28 12:21:30;;;;;;;7.57;5.43;;;17.20;72.90;;;;;;4990807;28;20026;-70
2022/05/28 12:24:27;;;;;;;4.40;3.00;;;17.00;73.90;;;;;;4990270;28;20030;-72
2022/05/28 12:29:33;;;;;;;3.97;0.88;;;16.30;90.70;;;;;;4990434;28;20030;-70
2022/05/28 12:32:17;;;;;;;2.42;0.70;;;16.50;74.00;;;;;;4990166;28;20042;-70
2022/05/28 12:35:02;;;;;;;4.40;0.68;;;16.30;77.50;;;;;;4990206;28;20030;-70
2022/05/28 12:37:45;;;;;;;4.93;0.70;;;16.30;90.60;;;;;;4990530;28;20034;-71
2022/05/28 12:40:13;;;;;;;4.63;0.87;;;16.70;90.50;;;;;;4988783;28;20029;-71
2022/05/28 12:42:41;;;;;;;2.30;0.52;;;16.90;75.60;;;;;;4988833;28;20022;-71
2022/05/28 12:45:13;;;;;;;4.55;1.05;;;17.10;73.50;;;;;;4989109;28;20060;-71
2022/05/28 12:47:39;;;;;;;5.70;1.73;;;17.10;73.00;;;;;;4984417;28;20038;-73
2022/05/28 12:50:26;;;;;;;1.90;0.60;;;17.20;72.30;;;;;;4971086;28;20034;-71
2022/05/28 12:53:18;;;;;;;5.20;0.82;;;17.10;86.10;;;;;;4971685;28;20392;-71
2022/05/28 12:55:43;;;;;;;3.58;0.90;;;17.00;69.90;;;;;;4971188;28;20051;-71
2022/05/28 12:58:26;;;;;;;7.07;2.03;;;16.90;70.90;;;;;;4970942;28;20062;-73
2022/05/28 13:00:58;;;;;;;4.28;0.90;;;17.00;71.90;;;;;;4989773;28;20097;-71
2022/05/28 13:03:29;;;;;;;2.15;1.02;;;17.00;71.90;;;;;;4989131;28;20716;-70
2022/05/28 13:06:21;;;;;;;7.13;1.35;;;17.20;72.20;;;;;;4990754;28;20045;-72
2022/05/28 13:09:08;;;;;;;7.30;0.90;;;17.30;72.50;;;;;;4989908;28;20062;-73
2022/05/28 13:12:00;;;;;;;4.18;1.00;;;17.40;70.90;;;;;;4991037;28;20022;-71
2022/05/28 13:14:31;;;;;;;6.45;1.70;;;17.60;72.10;;;;;;4990832;28;20026;-72
2022/05/28 13:17:25;;;;;;;5.80;1.10;;;17.60;71.80;;;;;;4989203;28;20468;-71
2022/05/28 13:20:00;;;;;;;8.63;1.35;;;17.50;73.70;;;;;;4987098;28;20033;-71
2022/05/28 13:22:53;;;;;;;5.88;0.98;;;17.20;76.20;;;;;;4989275;28;20026;-71
2022/05/28 13:25:44;;;;;;;2.58;0.80;;;17.10;90.60;;;;;;4988122;28;20495;-71
2022/05/28 13:28:22;;;;;;;2.70;0.90;;;17.10;75.20;;;;;;4989197;28;20113;-71
2022/05/28 13:30:52;;;;;;;7.32;0.90;;;17.20;74.50;;;;;;4994114;28;20511;-72
2022/05/28 13:33:19;;;;;;;4.00;1.05;;;17.30;77.30;;;;;;4993286;28;20044;-72